Time;durP1;ratioP1;P1;durP2;ratioP2;P2;SDS_P1;SDS_P2;PMS_P1;PMS_P2;Temp;Humidity;BMP_temperature;BMP_pressure;BME280_temperature;BME280_humidity;BME280_pressure;Samples;Min_cycle;Max_cycle;Signal;HPM_P1;HPM_P2
2023/01/17 00:01:08;;;;;;;8.90;3.77;;;2.60;99.90;;;;;;5093639;28;20215;-69
2023/01/17 00:09:51;;;;;;;8.57;4.40;;;2.70;99.90;;;;;;5093731;28;20593;-68
2023/01/17 00:11:56;;;;;;;6.77;4.63;;;2.60;99.90;;;;;;5093718;28;20187;-70
2023/01/17 00:14:22;;;;;;;9.33;4.67;;;2.50;99.90;;;;;;5093500;28;20176;-69
2023/01/17 00:16:47;;;;;;;8.03;4.10;;;2.50;99.90;;;;;;5093289;28;20179;-69
2023/01/17 01:33:44;;;;;;;9.37;5.47;;;2.10;99.90;;;;;;5096797;28;20175;-69
2023/01/17 01:36:09;;;;;;;6.00;5.07;;;2.00;99.90;;;;;;5096650;28;20176;-68
2023/01/17 01:38:35;;;;;;;8.87;5.60;;;2.00;99.90;;;;;;5096277;28;20176;-68
2023/01/17 01:41:01;;;;;;;10.33;5.50;;;2.10;99.90;;;;;;5096610;28;20671;-70
2023/01/17 01:43:47;;;;;;;6.53;5.67;;;2.00;99.90;;;;;;5096594;28;20174;-68
2023/01/17 01:46:30;;;;;;;9.80;5.77;;;2.00;99.90;;;;;;5096051;28;20223;-69
2023/01/17 01:49:17;;;;;;;9.57;6.17;;;2.00;99.90;;;;;;5096562;28;20187;-69
2023/01/17 01:51:51;;;;;;;8.13;6.07;;;1.90;99.90;;;;;;5096459;28;20647;-68
2023/01/17 01:54:23;;;;;;;10.77;6.63;;;1.90;99.90;;;;;;5096029;28;20179;-68
2023/01/17 01:56:52;;;;;;;8.57;6.10;;;1.80;99.90;;;;;;5096184;28;20220;-69
2023/01/17 01:59:19;;;;;;;10.07;6.20;;;1.90;99.90;;;;;;5096108;28;20206;-69
2023/01/17 02:01:46;;;;;;;8.77;6.70;;;1.80;99.90;;;;;;5096043;28;20215;-69
2023/01/17 02:04:13;;;;;;;10.37;6.77;;;1.80;99.90;;;;;;5096127;28;20160;-70
2023/01/17 02:06:45;;;;;;;11.73;7.17;;;1.80;99.90;;;;;;5096189;28;20627;-69
2023/01/17 02:09:12;;;;;;;11.53;6.83;;;1.80;99.90;;;;;;5095701;28;20178;-70
2023/01/17 02:11:39;;;;;;;8.47;7.10;;;1.70;99.90;;;;;;5096014;28;20179;-69
2023/01/17 02:14:05;;;;;;;12.67;7.27;;;1.70;99.90;;;;;;5095978;28;20199;-69
2023/01/17 02:16:45;;;;;;;15.73;8.00;;;1.70;99.90;;;;;;5095898;28;20218;-69
2023/01/17 02:19:36;;;;;;;13.60;7.43;;;1.70;99.90;;;;;;5096093;28;20164;-69
2023/01/17 02:22:26;;;;;;;12.90;8.00;;;1.70;99.90;;;;;;5095356;28;20187;-68
2023/01/17 02:25:16;;;;;;;11.60;8.13;;;1.60;99.90;;;;;;5095786;28;20168;-69
2023/01/17 02:28:03;;;;;;;11.90;7.70;;;1.60;99.90;;;;;;5095631;28;20239;-69
2023/01/17 02:30:38;;;;;;;11.07;8.30;;;1.60;99.90;;;;;;5095692;28;20556;-69
2023/01/17 02:33:28;;;;;;;14.13;8.23;;;1.60;99.90;;;;;;5095568;28;20175;-69
2023/01/17 02:36:03;;;;;;;13.83;8.50;;;1.50;99.90;;;;;;5095701;28;20167;-68
2023/01/17 02:39:04;;;;;;;13.50;8.33;;;1.50;99.90;;;;;;5093773;28;20567;-69
2023/01/17 02:41:40;;;;;;;14.43;8.53;;;1.50;99.90;;;;;;5013409;28;20213;-69
2023/01/17 02:44:08;;;;;;;13.10;9.27;;;1.50;99.90;;;;;;5013040;28;20170;-69
2023/01/17 02:46:47;;;;;;;13.00;9.17;;;1.40;99.90;;;;;;5013218;28;20233;-69
2023/01/17 02:49:15;;;;;;;13.03;8.67;;;1.40;99.90;;;;;;5013262;28;20252;-69
2023/01/17 02:52:24;;;;;;;13.90;8.50;;;1.40;99.90;;;;;;5012998;28;20187;-69
2023/01/17 02:55:12;;;;;;;15.17;8.57;;;1.40;99.90;;;;;;4935831;29;20181;-69
2023/01/17 02:57:53;;;;;;;17.10;9.40;;;1.50;99.90;;;;;;4935656;29;20264;-69
2023/01/17 03:00:26;;;;;;;13.43;8.70;;;1.40;99.90;;;;;;4935655;29;20217;-69
2023/01/17 03:03:21;;;;;;;16.47;9.03;;;1.40;99.90;;;;;;4935506;29;20212;-69
2023/01/17 03:06:12;;;;;;;21.50;9.43;;;1.40;99.90;;;;;;4934751;29;20193;-69
2023/01/17 03:08:41;;;;;;;12.30;8.70;;;1.40;99.90;;;;;;4935404;29;20184;-68
2023/01/17 03:11:08;;;;;;;15.17;8.73;;;1.40;99.90;;;;;;4919494;29;20204;-68
2023/01/17 03:13:34;;;;;;;16.63;9.30;;;1.40;99.90;;;;;;4935193;29;20260;-69
2023/01/17 03:16:05;;;;;;;14.07;9.00;;;1.40;99.90;;;;;;4935173;29;20282;-68
2023/01/17 03:18:31;;;;;;;15.17;9.67;;;1.30;99.90;;;;;;4979894;28;20266;-68
2023/01/17 03:20:57;;;;;;;13.73;9.30;;;1.20;99.90;;;;;;5012320;28;20210;-68
2023/01/17 03:23:22;;;;;;;12.97;9.20;;;1.30;99.90;;;;;;4996396;28;20179;-68
2023/01/17 03:25:48;;;;;;;15.60;9.07;;;1.30;99.90;;;;;;5064195;28;20178;-69
2023/01/17 03:28:13;;;;;;;15.03;9.33;;;1.30;99.90;;;;;;5094434;28;20269;-68
2023/01/17 03:30:39;;;;;;;14.20;8.87;;;1.30;99.90;;;;;;5093072;28;20207;-69
2023/01/17 03:33:04;;;;;;;14.23;8.73;;;1.20;99.90;;;;;;5094668;28;20179;-68
2023/01/17 03:35:30;;;;;;;13.50;8.33;;;1.20;99.90;;;;;;5094067;28;20631;-68
2023/01/17 03:37:56;;;;;;;12.77;8.10;;;1.20;99.90;;;;;;5094351;28;20171;-68
2023/01/17 03:40:22;;;;;;;13.97;9.03;;;1.20;99.90;;;;;;5094231;28;20204;-68
2023/01/17 03:42:47;;;;;;;14.43;8.53;;;1.20;99.90;;;;;;5094049;28;20251;-68
2023/01/17 03:45:13;;;;;;;15.30;8.60;;;1.20;99.90;;;;;;5093706;28;20783;-69
2023/01/17 03:47:39;;;;;;;12.30;8.17;;;1.20;99.90;;;;;;5094104;28;20251;-68
2023/01/17 03:50:05;;;;;;;13.60;9.17;;;1.20;99.90;;;;;;5093819;28;20273;-68
2023/01/17 03:52:31;;;;;;;14.03;9.00;;;1.10;99.90;;;;;;5094038;28;20175;-68
2023/01/17 03:54:56;;;;;;;12.77;8.47;;;1.10;99.90;;;;;;5092150;28;20172;-68
2023/01/17 03:57:22;;;;;;;12.00;8.27;;;1.10;99.90;;;;;;5093813;28;20168;-68
2023/01/17 03:59:48;;;;;;;13.30;8.87;;;1.10;99.90;;;;;;5092278;28;20183;-69
2023/01/17 04:02:13;;;;;;;11.60;8.37;;;1.10;99.90;;;;;;5092595;28;20677;-69
2023/01/17 04:04:39;;;;;;;12.47;7.87;;;1.10;99.90;;;;;;5093460;28;20172;-68
2023/01/17 04:07:04;;;;;;;11.17;7.63;;;1.10;99.90;;;;;;5093787;28;20220;-69
2023/01/17 04:09:32;;;;;;;13.30;9.13;;;1.10;99.90;;;;;;5093787;28;20160;-69
2023/01/17 04:11:59;;;;;;;13.97;8.43;;;1.10;99.90;;;;;;5093789;28;20160;-69
2023/01/17 04:14:24;;;;;;;14.33;9.10;;;1.10;99.90;;;;;;5093540;28;20179;-70
2023/01/17 04:16:50;;;;;;;13.60;8.60;;;1.10;99.90;;;;;;5092429;28;20519;-69
2023/01/17 04:19:16;;;;;;;14.23;8.47;;;1.10;99.90;;;;;;5092812;28;20171;-70
2023/01/17 04:21:42;;;;;;;13.43;9.10;;;1.10;99.90;;;;;;5091776;28;20213;-69
2023/01/17 04:24:07;;;;;;;12.37;8.60;;;1.10;99.90;;;;;;5093472;28;20160;-68
2023/01/17 04:26:33;;;;;;;16.77;9.23;;;1.10;99.90;;;;;;5093646;28;20226;-68
2023/01/17 04:28:59;;;;;;;14.23;9.07;;;1.10;99.90;;;;;;5093171;28;20168;-69
2023/01/17 04:31:24;;;;;;;16.13;9.07;;;1.20;99.90;;;;;;5093479;28;20720;-69
2023/01/17 04:33:50;;;;;;;16.37;10.03;;;1.10;99.90;;;;;;5092866;28;20178;-69
2023/01/17 04:36:16;;;;;;;15.23;9.73;;;1.20;99.90;;;;;;5093466;28;20625;-69
2023/01/17 04:38:42;;;;;;;14.40;9.30;;;1.10;99.90;;;;;;5093198;28;20164;-68
2023/01/17 04:41:07;;;;;;;14.83;9.77;;;1.20;99.90;;;;;;5093121;28;20198;-68
2023/01/17 04:43:33;;;;;;;15.43;9.37;;;1.10;99.90;;;;;;5093159;28;20534;-68
2023/01/17 04:45:59;;;;;;;15.70;9.60;;;1.20;99.90;;;;;;5092646;28;20567;-68
2023/01/17 04:48:26;;;;;;;15.73;9.53;;;1.10;99.90;;;;;;5092851;28;20172;-68
2023/01/17 04:50:57;;;;;;;14.60;9.77;;;1.10;99.90;;;;;;5092810;28;20629;-69
2023/01/17 04:53:23;;;;;;;15.40;9.27;;;1.00;99.90;;;;;;5093098;28;20175;-69
2023/01/17 04:55:48;;;;;;;14.00;9.27;;;1.00;99.90;;;;;;5091577;28;20232;-69
2023/01/17 04:58:14;;;;;;;17.53;9.70;;;1.00;99.90;;;;;;5092630;28;20164;-69
2023/01/17 05:00:40;;;;;;;14.77;10.10;;;1.00;99.90;;;;;;5092846;28;20215;-69
2023/01/17 05:03:06;;;;;;;16.53;10.07;;;1.10;99.90;;;;;;5091318;28;20273;-70
2023/01/17 05:05:31;;;;;;;13.77;9.60;;;1.10;99.90;;;;;;5092860;28;20180;-69
2023/01/17 05:07:57;;;;;;;16.60;10.23;;;1.10;99.90;;;;;;5095629;28;20183;-69
2023/01/17 05:10:24;;;;;;;13.13;9.50;;;1.10;99.90;;;;;;5096714;28;20197;-70
2023/01/17 05:12:58;;;;;;;14.53;9.80;;;1.10;99.90;;;;;;5094929;28;20180;-69
2023/01/17 05:15:24;;;;;;;13.87;9.27;;;1.10;99.90;;;;;;5096598;28;20176;-68
2023/01/17 05:17:52;;;;;;;16.30;10.40;;;1.10;99.90;;;;;;5096242;28;20178;-70
2023/01/17 05:20:18;;;;;;;14.33;9.70;;;1.10;99.90;;;;;;5096720;28;20225;-69
2023/01/17 05:22:46;;;;;;;19.17;9.97;;;1.10;99.90;;;;;;5096511;28;20672;-69
2023/01/17 05:25:12;;;;;;;17.97;10.27;;;1.10;99.90;;;;;;5096199;28;20171;-69
2023/01/17 05:27:37;;;;;;;19.60;10.60;;;1.10;99.90;;;;;;5096534;28;20172;-69
2023/01/17 05:30:04;;;;;;;17.23;10.30;;;1.10;99.90;;;;;;5095426;28;20199;-69
2023/01/17 05:32:29;;;;;;;15.10;10.80;;;1.10;99.90;;;;;;5095883;28;20635;-70
2023/01/17 05:34:55;;;;;;;16.97;10.23;;;1.10;99.90;;;;;;5096353;28;20267;-71
2023/01/17 05:37:21;;;;;;;19.50;10.73;;;1.10;99.90;;;;;;5096441;28;20175;-70
2023/01/17 05:39:46;;;;;;;14.90;10.00;;;1.20;99.90;;;;;;5095968;28;20175;-70
2023/01/17 05:42:12;;;;;;;17.23;10.00;;;1.20;99.90;;;;;;5095821;28;20182;-70
2023/01/17 05:44:37;;;;;;;17.47;9.33;;;1.10;99.90;;;;;;5094287;28;20631;-71
2023/01/17 05:47:03;;;;;;;15.97;10.03;;;1.00;99.90;;;;;;5095848;28;20211;-70
2023/01/17 05:49:28;;;;;;;18.87;9.80;;;1.00;99.90;;;;;;5096054;28;20171;-69
2023/01/17 05:51:54;;;;;;;15.73;9.53;;;1.00;99.90;;;;;;5095714;28;20175;-70
2023/01/17 05:54:20;;;;;;;18.17;10.03;;;1.00;99.90;;;;;;5094432;28;20627;-68
2023/01/17 05:56:45;;;;;;;17.90;10.83;;;1.00;99.90;;;;;;5096017;28;20652;-68
2023/01/17 05:59:11;;;;;;;18.60;10.27;;;1.00;99.90;;;;;;5095661;28;20312;-69
2023/01/17 06:01:36;;;;;;;17.97;9.73;;;0.90;99.90;;;;;;5094587;28;20237;-69
2023/01/17 06:04:02;;;;;;;14.40;10.23;;;1.00;99.90;;;;;;5095990;28;20175;-70
2023/01/17 06:06:28;;;;;;;17.80;10.57;;;0.90;99.90;;;;;;5094364;28;20355;-70
2023/01/17 06:08:53;;;;;;;17.53;10.47;;;0.90;99.90;;;;;;5095263;28;20172;-71
2023/01/17 06:11:19;;;;;;;14.27;9.80;;;0.80;99.90;;;;;;5094716;28;20172;-71
2023/01/17 06:13:46;;;;;;;18.03;10.03;;;0.80;99.90;;;;;;5093657;28;20183;-69
2023/01/17 06:16:12;;;;;;;21.57;11.07;;;0.80;99.90;;;;;;5095286;28;20584;-70
2023/01/17 06:18:37;;;;;;;16.63;10.87;;;0.80;99.90;;;;;;5094381;28;20164;-70
2023/01/17 06:21:03;;;;;;;18.90;10.20;;;0.80;99.90;;;;;;5095244;28;20537;-70
2023/01/17 06:23:29;;;;;;;21.57;10.77;;;0.80;99.90;;;;;;5094766;28;20167;-70
2023/01/17 06:25:54;;;;;;;17.00;10.93;;;0.80;99.90;;;;;;5095033;28;20189;-70
2023/01/17 06:28:22;;;;;;;16.27;10.53;;;0.80;99.90;;;;;;5094683;28;20176;-71
2023/01/17 06:30:48;;;;;;;22.50;10.50;;;0.90;99.90;;;;;;5094077;28;20506;-70
2023/01/17 06:33:14;;;;;;;20.33;9.63;;;0.80;99.90;;;;;;5094535;28;20247;-70
2023/01/17 06:35:45;;;;;;;21.30;11.20;;;0.90;99.90;;;;;;5094492;28;20570;-70
2023/01/17 06:38:11;;;;;;;20.03;10.27;;;0.90;99.90;;;;;;5094573;28;20199;-70
2023/01/17 06:40:37;;;;;;;15.90;9.37;;;1.00;99.90;;;;;;5093035;28;20675;-69
2023/01/17 06:43:03;;;;;;;22.77;10.57;;;1.00;99.90;;;;;;5093852;28;20177;-69
2023/01/17 06:45:30;;;;;;;21.27;11.20;;;1.00;99.90;;;;;;5094252;28;20215;-70
2023/01/17 06:47:58;;;;;;;15.03;9.97;;;1.00;99.90;;;;;;5094033;28;20171;-70
2023/01/17 06:50:24;;;;;;;15.93;9.70;;;1.00;99.90;;;;;;5094081;28;20175;-71
2023/01/17 06:52:59;;;;;;;19.50;8.97;;;1.00;99.90;;;;;;5093841;28;20615;-69
2023/01/17 06:55:29;;;;;;;19.80;9.77;;;1.00;99.90;;;;;;5094332;28;20189;-70
2023/01/17 06:57:57;;;;;;;18.43;10.63;;;1.10;99.90;;;;;;5093233;28;20696;-69
2023/01/17 07:00:23;;;;;;;17.50;9.87;;;1.10;99.90;;;;;;5092923;28;20200;-69
2023/01/17 07:02:49;;;;;;;17.33;9.20;;;1.10;99.90;;;;;;5093768;28;20575;-69
2023/01/17 07:05:16;;;;;;;18.43;9.97;;;1.00;99.90;;;;;;5094017;28;20187;-70
2023/01/17 07:07:42;;;;;;;17.03;9.40;;;1.00;99.90;;;;;;5093320;28;20193;-71
2023/01/17 07:10:09;;;;;;;19.70;10.80;;;1.10;99.90;;;;;;5093603;28;20171;-69
2023/01/17 07:12:35;;;;;;;16.00;9.83;;;1.00;99.90;;;;;;5093441;28;20205;-69
2023/01/17 07:15:00;;;;;;;21.00;9.80;;;0.90;99.90;;;;;;5093051;28;20168;-70
2023/01/17 07:17:26;;;;;;;17.50;10.63;;;0.90;99.90;;;;;;5093822;28;20199;-70
2023/01/17 07:19:52;;;;;;;19.33;10.57;;;0.90;99.90;;;;;;5093280;28;20576;-71
2023/01/17 07:22:17;;;;;;;16.50;9.53;;;1.00;99.90;;;;;;5092786;28;20267;-69
2023/01/17 07:24:43;;;;;;;18.33;9.97;;;1.00;99.90;;;;;;5093508;28;20171;-70
2023/01/17 07:27:08;;;;;;;15.80;9.00;;;1.00;99.90;;;;;;5093201;28;20186;-69
2023/01/17 07:29:34;;;;;;;19.93;10.90;;;1.10;99.90;;;;;;5091363;28;20164;-69
2023/01/17 07:32:00;;;;;;;18.40;9.70;;;1.00;99.90;;;;;;5093291;28;20547;-70
2023/01/17 07:34:26;;;;;;;15.10;8.70;;;1.10;99.90;;;;;;5093439;28;20250;-69
2023/01/17 07:36:53;;;;;;;13.97;9.10;;;1.10;99.90;;;;;;5091398;28;20252;-69
2023/01/17 07:39:19;;;;;;;15.30;9.17;;;1.10;99.90;;;;;;5092267;28;20180;-69
2023/01/17 07:41:45;;;;;;;17.13;9.70;;;1.00;99.90;;;;;;5092986;28;20218;-69
2023/01/17 07:44:12;;;;;;;21.37;11.50;;;1.00;99.90;;;;;;5092660;28;20183;-69
2023/01/17 07:46:38;;;;;;;15.13;10.00;;;1.10;99.90;;;;;;5092362;28;20623;-71
2023/01/17 07:49:04;;;;;;;22.10;10.10;;;1.00;99.90;;;;;;5092645;28;20352;-71
2023/01/17 07:51:29;;;;;;;18.03;8.87;;;1.10;99.90;;;;;;5081984;28;20626;-70
2023/01/17 07:53:55;;;;;;;19.30;10.63;;;1.20;99.90;;;;;;5088471;28;20228;-68
2023/01/17 07:56:21;;;;;;;18.40;9.47;;;1.20;99.90;;;;;;5090984;28;20713;-70
2023/01/17 07:58:47;;;;;;;20.03;9.97;;;1.20;99.90;;;;;;5070568;28;20176;-69
2023/01/17 08:01:14;;;;;;;15.87;8.90;;;1.30;99.90;;;;;;5072133;28;20207;-69
2023/01/17 08:03:40;;;;;;;22.27;9.63;;;1.30;99.90;;;;;;5073281;28;20200;-69
2023/01/17 08:06:19;;;;;;;20.90;9.10;;;1.30;99.90;;;;;;5087134;28;20186;-70
2023/01/17 08:08:45;;;;;;;19.63;9.73;;;1.50;99.90;;;;;;5091394;28;20172;-70
2023/01/17 08:11:12;;;;;;;16.40;9.10;;;1.60;99.90;;;;;;5091264;28;20274;-70
2023/01/17 08:13:37;;;;;;;18.60;9.30;;;1.70;99.90;;;;;;5092655;28;20245;-69
2023/01/17 08:16:03;;;;;;;17.20;9.30;;;1.70;99.90;;;;;;5080202;28;20647;-69
2023/01/17 08:18:29;;;;;;;19.10;8.80;;;1.90;99.90;;;;;;5087621;28;20205;-69
2023/01/17 08:20:55;;;;;;;15.07;9.33;;;2.00;99.90;;;;;;5075412;28;20215;-70
2023/01/17 08:23:21;;;;;;;13.63;8.63;;;2.10;99.90;;;;;;5074603;28;20183;-70
2023/01/17 08:25:46;;;;;;;14.00;9.17;;;2.30;99.90;;;;;;5082407;28;20284;-69
2023/01/17 08:28:12;;;;;;;13.40;8.23;;;2.80;99.90;;;;;;5071256;28;20582;-70
2023/01/17 08:30:38;;;;;;;14.63;9.77;;;3.30;99.90;;;;;;5089440;28;20179;-69
2023/01/17 08:33:04;;;;;;;18.80;7.53;;;3.60;99.90;;;;;;5076796;28;20635;-70
2023/01/17 08:35:30;;;;;;;11.97;7.37;;;3.80;99.90;;;;;;5081971;28;20554;-69
2023/01/17 08:37:56;;;;;;;18.47;8.20;;;3.70;99.90;;;;;;5088517;28;20171;-69
2023/01/17 08:40:22;;;;;;;11.73;5.67;;;3.80;99.90;;;;;;5079449;28;20210;-69
2023/01/17 08:42:59;;;;;;;13.13;6.07;;;4.40;99.90;;;;;;5081166;28;20655;-68
2023/01/17 08:45:25;;;;;;;11.00;5.73;;;5.10;99.90;;;;;;5103003;28;20308;-68
2023/01/17 08:47:51;;;;;;;13.97;6.23;;;6.00;99.90;;;;;;5095066;28;20186;-69
2023/01/17 08:50:20;;;;;;;9.57;5.43;;;7.00;99.90;;;;;;5101785;28;20176;-69
2023/01/17 08:52:47;;;;;;;8.90;5.50;;;8.00;99.90;;;;;;5091805;28;20187;-70
2023/01/17 08:55:13;;;;;;;9.07;5.80;;;8.60;99.90;;;;;;5088600;28;20172;-68
2023/01/17 08:57:39;;;;;;;9.93;5.80;;;9.10;99.90;;;;;;5076440;28;20651;-70
2023/01/17 09:00:06;;;;;;;15.37;5.40;;;9.50;99.90;;;;;;5106175;28;20392;-69
2023/01/17 09:02:32;;;;;;;15.23;6.23;;;10.50;99.80;;;;;;5098339;28;20201;-69
2023/01/17 09:04:57;;;;;;;13.90;6.10;;;11.10;97.70;;;;;;5091433;28;20187;-69
2023/01/17 09:07:25;;;;;;;11.90;6.20;;;11.40;95.80;;;;;;5080870;28;20180;-70
2023/01/17 09:09:51;;;;;;;10.47;5.23;;;12.10;95.50;;;;;;5077287;28;20234;-70
2023/01/17 09:12:19;;;;;;;6.67;4.80;;;12.40;92.30;;;;;;5083147;28;20178;-70
2023/01/17 09:14:45;;;;;;;13.23;5.67;;;12.90;91.40;;;;;;5078068;28;20592;-70
2023/01/17 09:17:10;;;;;;;9.97;5.43;;;13.20;90.00;;;;;;5084214;28;20212;-69
2023/01/17 09:19:38;;;;;;;8.03;5.90;;;13.60;87.40;;;;;;5098530;28;20640;-69
2023/01/17 09:22:05;;;;;;;12.13;5.60;;;13.80;86.30;;;;;;5080231;28;20209;-70
2023/01/17 09:24:32;;;;;;;14.80;6.57;;;13.80;84.20;;;;;;5087542;28;20188;-69
2023/01/17 09:26:57;;;;;;;14.57;7.00;;;13.80;84.80;;;;;;5099324;28;20547;-70
2023/01/17 09:29:23;;;;;;;11.27;7.30;;;13.50;85.10;;;;;;5107156;28;20641;-70
2023/01/17 09:31:49;;;;;;;9.97;6.63;;;13.20;87.00;;;;;;5078798;28;20184;-69
2023/01/17 09:34:14;;;;;;;17.47;5.70;;;12.60;85.60;;;;;;5083450;28;20186;-70
2023/01/17 09:36:41;;;;;;;12.97;6.63;;;12.10;89.60;;;;;;5078330;28;20532;-70
2023/01/17 09:39:08;;;;;;;10.70;6.40;;;12.30;91.20;;;;;;5089216;28;20180;-68
2023/01/17 09:41:44;;;;;;;10.23;6.67;;;12.30;89.30;;;;;;5084052;28;20671;-70
2023/01/17 09:44:28;;;;;;;11.27;6.67;;;12.30;90.00;;;;;;5093345;28;20179;-69
2023/01/17 09:46:58;;;;;;;12.60;5.90;;;12.30;87.50;;;;;;5095091;28;20266;-68
2023/01/17 09:49:36;;;;;;;15.40;6.93;;;11.70;88.30;;;;;;5103412;28;20196;-68
2023/01/17 09:52:03;;;;;;;10.73;8.17;;;11.10;92.00;;;;;;5071905;28;20272;-67
2023/01/17 09:54:36;;;;;;;13.30;5.63;;;10.70;92.80;;;;;;5099918;28;20575;-68
2023/01/17 09:57:23;;;;;;;9.80;5.77;;;10.40;92.90;;;;;;5090184;28;20231;-68
2023/01/17 10:00:20;;;;;;;10.07;5.93;;;10.30;93.70;;;;;;5084255;28;20184;-68
2023/01/17 10:03:34;;;;;;;11.97;5.73;;;10.40;94.20;;;;;;5103614;28;20180;-68
2023/01/17 10:06:15;;;;;;;18.27;10.13;;;10.20;93.30;;;;;;5080410;28;20196;-69
2023/01/17 10:09:03;;;;;;;11.77;7.40;;;10.40;94.60;;;;;;5082809;28;20218;-69
2023/01/17 10:12:08;;;;;;;9.60;7.60;;;10.40;94.80;;;;;;5098349;28;20181;-68
2023/01/17 10:14:42;;;;;;;13.43;7.87;;;10.70;94.10;;;;;;5055847;28;20188;-68
2023/01/17 10:17:35;;;;;;;15.57;7.60;;;10.80;93.90;;;;;;5087167;28;20168;-67
2023/01/17 10:20:32;;;;;;;17.13;10.57;;;10.50;93.40;;;;;;5081956;28;20203;-69
2023/01/17 10:23:52;;;;;;;13.23;8.90;;;10.60;94.50;;;;;;5081866;28;20185;-69
2023/01/17 10:26:24;;;;;;;14.50;9.43;;;11.40;93.70;;;;;;5010997;28;20214;-70
2023/01/17 10:28:52;;;;;;;15.20;8.90;;;12.10;92.50;;;;;;5090860;28;20216;-69
2023/01/17 10:31:26;;;;;;;13.87;9.37;;;12.30;91.00;;;;;;5082013;28;20168;-70
2023/01/17 10:33:57;;;;;;;14.00;10.00;;;12.90;90.20;;;;;;5074697;28;20197;-69
2023/01/17 10:36:25;;;;;;;9.97;7.60;;;13.50;85.20;;;;;;5085635;28;20455;-71
2023/01/17 10:38:55;;;;;;;13.67;8.50;;;13.60;81.10;;;;;;5074740;28;20183;-70
2023/01/17 10:41:36;;;;;;;13.55;8.05;;;13.60;80.30;;;;;;5088975;28;20679;-71
2023/01/17 10:44:34;;;;;;;9.27;6.97;;;13.60;79.10;;;;;;5082566;28;20188;-70
2023/01/17 10:47:09;;;;;;;12.32;7.40;;;13.80;77.30;;;;;;5048083;28;20197;-71
2023/01/17 10:49:44;;;;;;;10.95;6.78;;;14.00;69.10;;;;;;5064175;28;20266;-70
2023/01/17 10:52:45;;;;;;;10.10;6.30;;;14.00;1.00;;;;;;5044038;28;20170;-71
2023/01/17 10:55:26;;;;;;;9.93;6.05;;;14.10;1.00;;;;;;4993495;28;20190;-70
2023/01/17 10:57:52;;;;;;;11.60;6.72;;;14.20;1.00;;;;;;5009149;28;20237;-70
2023/01/17 11:00:42;;;;;;;8.60;6.65;;;14.40;1.00;;;;;;5024278;28;20206;-70
2023/01/17 11:03:10;;;;;;;12.25;7.45;;;14.50;1.00;;;;;;5015477;28;20223;-69
2023/01/17 11:05:36;;;;;;;12.00;7.57;;;14.50;1.00;;;;;;5027593;28;20185;-69
2023/01/17 11:08:07;;;;;;;12.50;7.30;;;14.30;1.00;;;;;;5013812;28;20267;-70
2023/01/17 11:10:49;;;;;;;12.75;6.53;;;14.00;1.00;;;;;;5020160;28;20195;-69
2023/01/17 11:13:34;;;;;;;11.03;7.30;;;12.90;10.20;;;;;;5015070;28;20189;-69
2023/01/17 11:16:04;;;;;;;10.37;6.73;;;12.60;78.90;;;;;;4992634;28;20213;-69
2023/01/17 11:18:36;;;;;;;17.27;7.47;;;11.70;83.10;;;;;;5003537;28;20201;-68
2023/01/17 11:21:16;;;;;;;13.30;8.30;;;11.20;90.00;;;;;;5012522;28;20297;-69
2023/01/17 11:23:44;;;;;;;12.17;7.07;;;11.10;90.20;;;;;;4989535;28;20299;-69
2023/01/17 11:26:21;;;;;;;12.87;8.23;;;10.70;90.70;;;;;;5008536;28;20630;-70
2023/01/17 11:28:46;;;;;;;16.50;9.00;;;10.10;92.20;;;;;;5012551;28;20257;-69
2023/01/17 11:31:15;;;;;;;13.40;8.30;;;10.10;93.60;;;;;;5030380;28;20536;-70
2023/01/17 11:33:52;;;;;;;14.23;6.27;;;10.20;93.40;;;;;;5058914;28;20165;-70
2023/01/17 11:36:26;;;;;;;14.47;7.07;;;10.70;93.10;;;;;;5066364;28;20204;-70
2023/01/17 11:38:57;;;;;;;12.07;7.10;;;11.10;91.80;;;;;;5039421;28;20185;-70
2023/01/17 11:41:26;;;;;;;9.33;6.27;;;11.60;91.50;;;;;;5058149;28;20186;-70
2023/01/17 11:43:57;;;;;;;12.40;5.83;;;11.60;90.70;;;;;;5069990;28;20170;-70
2023/01/17 11:46:23;;;;;;;16.70;8.47;;;11.80;88.40;;;;;;5083997;28;20229;-70
2023/01/17 11:48:54;;;;;;;12.97;7.07;;;11.70;87.60;;;;;;5101695;28;20171;-71
2023/01/17 11:51:32;;;;;;;13.33;6.47;;;12.00;88.80;;;;;;5099978;28;20176;-70
2023/01/17 11:54:27;;;;;;;11.93;6.67;;;12.20;86.50;;;;;;5080515;28;20174;-69
2023/01/17 11:57:00;;;;;;;12.70;5.63;;;12.90;84.30;;;;;;5084017;28;20184;-69
2023/01/17 11:59:36;;;;;;;11.30;5.97;;;13.40;76.90;;;;;;5090424;28;20192;-72
2023/01/17 12:02:36;;;;;;;10.43;4.65;;;13.30;1.00;;;;;;5084634;28;20694;-70
2023/01/17 12:05:26;;;;;;;12.98;5.38;;;13.20;1.00;;;;;;5077829;28;20200;-71
2023/01/17 12:08:18;;;;;;;6.90;4.50;;;13.60;1.00;;;;;;5081621;28;20183;-70
2023/01/17 12:11:04;;;;;;;7.13;4.25;;;13.30;1.00;;;;;;5079555;28;20651;-71
2023/01/17 12:16:45;;;;;;;16.20;4.53;;;12.00;75.70;;;;;;5082112;28;20203;-70
2023/01/17 12:19:44;;;;;;;9.17;4.70;;;11.40;79.10;;;;;;5099398;28;20164;-69
2023/01/17 12:22:15;;;;;;;10.10;4.90;;;10.50;84.80;;;;;;5081469;28;20214;-70
2023/01/17 12:24:57;;;;;;;9.27;4.27;;;11.30;86.70;;;;;;5083264;28;20172;-69
2023/01/17 12:27:34;;;;;;;10.10;5.57;;;11.60;83.10;;;;;;5075025;28;20200;-70
2023/01/17 12:30:22;;;;;;;8.10;4.20;;;12.00;81.60;;;;;;5076549;28;20656;-71
2023/01/17 12:33:05;;;;;;;8.13;4.00;;;12.10;78.70;;;;;;5094838;28;20601;-70
2023/01/17 12:36:07;;;;;;;8.10;4.00;;;11.60;79.00;;;;;;5104871;28;20171;-70
2023/01/17 12:38:38;;;;;;;7.27;3.47;;;11.00;76.60;;;;;;5056302;28;20193;-71
2023/01/17 12:41:16;;;;;;;4.73;3.13;;;10.50;83.30;;;;;;5087942;28;20220;-69
2023/01/17 12:43:43;;;;;;;11.10;3.53;;;10.90;82.50;;;;;;5092608;28;20591;-69
2023/01/17 12:46:19;;;;;;;8.53;3.97;;;11.20;80.50;;;;;;5096598;28;20217;-69
2023/01/17 12:48:50;;;;;;;9.33;4.30;;;10.80;80.70;;;;;;5104983;28;20201;-69
2023/01/17 12:51:30;;;;;;;7.57;4.07;;;10.60;80.80;;;;;;5080810;28;20700;-69
2023/01/17 12:54:03;;;;;;;9.03;4.57;;;10.50;81.70;;;;;;5081585;28;20277;-69
2023/01/17 12:56:41;;;;;;;9.50;4.10;;;10.50;82.10;;;;;;5101264;28;20178;-69
2023/01/17 12:59:29;;;;;;;7.83;3.77;;;10.00;84.20;;;;;;5089833;28;20357;-70
2023/01/17 13:01:56;;;;;;;7.80;3.77;;;9.20;90.40;;;;;;5077791;28;20341;-69
2023/01/17 13:04:37;;;;;;;6.70;3.50;;;8.90;91.60;;;;;;5087064;28;20175;-70
2023/01/17 13:07:33;;;;;;;10.90;3.47;;;7.90;92.70;;;;;;5073364;28;20524;-70
2023/01/17 13:10:30;;;;;;;11.33;5.20;;;6.70;96.80;;;;;;5084146;28;20175;-70
2023/01/17 13:12:59;;;;;;;10.07;3.93;;;6.50;98.80;;;;;;5082349;28;20568;-70
2023/01/17 13:15:29;;;;;;;7.10;3.80;;;6.60;99.90;;;;;;5098069;28;20175;-69
2023/01/17 13:18:21;;;;;;;13.80;4.33;;;6.50;99.40;;;;;;5076618;28;20593;-69
2023/01/17 13:21:05;;;;;;;5.73;3.90;;;6.40;99.70;;;;;;5080197;28;20227;-70
2023/01/17 13:23:42;;;;;;;10.60;4.50;;;6.10;99.90;;;;;;5074927;28;20215;-69
2023/01/17 13:26:43;;;;;;;9.60;4.03;;;5.60;99.90;;;;;;5092830;28;20210;-69
2023/01/17 13:29:36;;;;;;;7.47;4.37;;;5.60;99.90;;;;;;5071713;28;20212;-70
2023/01/17 13:32:26;;;;;;;7.30;4.37;;;5.70;99.90;;;;;;5091603;28;20249;-70
2023/01/17 13:35:20;;;;;;;9.07;5.20;;;5.90;99.90;;;;;;5097921;28;20168;-69
2023/01/17 13:37:58;;;;;;;14.80;4.50;;;6.00;99.90;;;;;;5081505;28;20309;-70
2023/01/17 13:40:33;;;;;;;7.20;3.90;;;6.00;99.90;;;;;;5107562;28;20191;-69
2023/01/17 13:43:01;;;;;;;7.53;3.90;;;5.80;99.90;;;;;;5082700;28;20239;-70
2023/01/17 13:45:35;;;;;;;6.43;4.40;;;5.40;99.90;;;;;;5094368;28;20220;-71
2023/01/17 13:48:18;;;;;;;9.50;4.23;;;5.20;99.90;;;;;;5087927;28;20279;-69
2023/01/17 13:50:57;;;;;;;6.50;3.47;;;5.10;99.90;;;;;;5095445;28;20271;-70
2023/01/17 13:53:43;;;;;;;8.20;4.37;;;4.90;99.90;;;;;;5082483;28;20176;-70
2023/01/17 13:56:17;;;;;;;10.07;4.20;;;5.00;99.90;;;;;;5073774;28;20208;-70
2023/01/17 13:58:57;;;;;;;8.17;4.50;;;5.10;99.90;;;;;;5104149;28;20180;-69
2023/01/17 14:01:22;;;;;;;8.07;4.03;;;5.10;99.90;;;;;;5072296;28;20250;-69
2023/01/17 14:03:48;;;;;;;12.63;4.83;;;5.20;99.90;;;;;;5098156;28;20300;-68
2023/01/17 14:06:44;;;;;;;10.67;5.17;;;5.30;99.90;;;;;;5098715;28;20707;-69
2023/01/17 14:09:29;;;;;;;11.27;5.00;;;5.50;99.90;;;;;;5093298;28;20179;-69
2023/01/17 14:12:10;;;;;;;10.43;5.63;;;5.70;99.90;;;;;;5093606;28;20495;-69
2023/01/17 14:14:38;;;;;;;6.40;4.10;;;5.60;99.90;;;;;;5095593;28;20177;-67
2023/01/17 14:17:21;;;;;;;12.77;7.93;;;5.60;99.90;;;;;;5096405;28;20190;-68
2023/01/17 14:19:51;;;;;;;8.00;3.70;;;5.70;99.90;;;;;;5089443;28;20175;-69
2023/01/17 14:22:19;;;;;;;10.77;5.53;;;5.80;99.90;;;;;;5096154;28;20215;-68
2023/01/17 14:24:57;;;;;;;10.17;4.13;;;6.00;99.90;;;;;;5102255;28;20171;-69
2023/01/17 14:27:24;;;;;;;11.50;3.67;;;5.60;99.90;;;;;;5098251;28;20184;-69
2023/01/17 14:29:57;;;;;;;12.73;4.20;;;5.50;99.90;;;;;;5091258;28;20844;-67
2023/01/17 14:32:31;;;;;;;10.10;4.03;;;5.50;99.90;;;;;;5096824;28;20263;-70
2023/01/17 14:34:57;;;;;;;7.77;3.43;;;5.50;99.90;;;;;;5098900;28;20627;-69